Westover, South Dakota
Current Conditions -  °F | °C
As of 6:55 AM on Thursday 23 Oct 2014 (Local Time) from KPHP Reporting Station
Clear Clear  
Wind Chill: 33°   Ceiling: Unl
Heat Index: 33°   Visibility: 10mi
Dew Point: 29°   Wind: 0mph
Humidity: 85%   Direction: NA
Pressure: 29.98"   Gusts: NA
Location:  43.6197°N, 100.883°W
Report Text: KPHP 231155Z AUTO 00000KT 10SM CLR 01/M02 A2998 RMK AO2 SLP160 T00061017 10022 21006 55004
Loading
Personal Weather Stations






























Interactive Weather Map
Tropical Storm Tracking
New forecast layout! Learn more

10-Day Weather Forecast

Advertisements
Track Severe Weather on mobile